sensor_id;sensor_type;location;lat;lon;timestamp;pressure;altitude;pressure_sealevel;temperature;humidity
60246;BME280;46107;53.356;-1.524;2023-07-13T00:01:40;98511.69;;;14.96;56.15
60246;BME280;46107;53.356;-1.524;2023-07-13T00:04:07;98510.64;;;15.53;54.84
60246;BME280;46107;53.356;-1.524;2023-07-13T00:06:34;98522.39;;;14.46;57.59
60246;BME280;46107;53.356;-1.524;2023-07-13T00:09:02;98518.87;;;14.20;58.13
60246;BME280;46107;53.356;-1.524;2023-07-13T00:11:29;98522.77;;;14.24;57.54
60246;BME280;46107;53.356;-1.524;2023-07-13T00:13:57;98521.38;;;14.62;57.26
60246;BME280;46107;53.356;-1.524;2023-07-13T00:16:24;98523.32;;;14.31;57.43
60246;BME280;46107;53.356;-1.524;2023-07-13T00:18:52;98527.05;;;14.75;56.27
60246;BME280;46107;53.356;-1.524;2023-07-13T00:21:20;98520.76;;;15.08;55.51
60246;BME280;46107;53.356;-1.524;2023-07-13T00:23:48;98530.71;;;15.00;56.47
60246;BME280;46107;53.356;-1.524;2023-07-13T00:26:15;98528.25;;;14.24;58.47
60246;BME280;46107;53.356;-1.524;2023-07-13T00:28:42;98535.44;;;14.53;58.35
60246;BME280;46107;53.356;-1.524;2023-07-13T00:31:12;98534.77;;;14.67;56.26
60246;BME280;46107;53.356;-1.524;2023-07-13T00:33:40;98532.99;;;14.54;56.08
60246;BME280;46107;53.356;-1.524;2023-07-13T00:36:12;98530.82;;;15.28;54.70
60246;BME280;46107;53.356;-1.524;2023-07-13T00:38:40;98528.95;;;15.89;53.78
60246;BME280;46107;53.356;-1.524;2023-07-13T00:41:08;98535.16;;;15.16;54.38
60246;BME280;46107;53.356;-1.524;2023-07-13T00:43:36;98539.85;;;13.98;58.69
60246;BME280;46107;53.356;-1.524;2023-07-13T00:46:14;98541.47;;;14.53;56.95
60246;BME280;46107;53.356;-1.524;2023-07-13T00:48:44;98541.08;;;14.69;57.28
60246;BME280;46107;53.356;-1.524;2023-07-13T00:51:14;98539.63;;;14.18;57.18
60246;BME280;46107;53.356;-1.524;2023-07-13T00:53:43;98522.00;;;15.80;53.93
60246;BME280;46107;53.356;-1.524;2023-07-13T00:56:11;98519.06;;;15.38;54.99
60246;BME280;46107;53.356;-1.524;2023-07-13T00:58:39;98517.94;;;14.93;55.08
60246;BME280;46107;53.356;-1.524;2023-07-13T01:01:07;98521.93;;;14.46;59.03
60246;BME280;46107;53.356;-1.524;2023-07-13T01:03:35;98511.79;;;14.70;57.90
60246;BME280;46107;53.356;-1.524;2023-07-13T01:06:03;98518.93;;;15.54;56.18
60246;BME280;46107;53.356;-1.524;2023-07-13T01:08:31;98517.58;;;15.32;56.18
60246;BME280;46107;53.356;-1.524;2023-07-13T01:10:58;98529.52;;;14.49;59.53
60246;BME280;46107;53.356;-1.524;2023-07-13T01:13:26;98531.25;;;14.98;56.83
60246;BME280;46107;53.356;-1.524;2023-07-13T01:15:55;98535.37;;;14.14;59.10
60246;BME280;46107;53.356;-1.524;2023-07-13T01:18:26;98540.17;;;14.67;57.96
60246;BME280;46107;53.356;-1.524;2023-07-13T01:20:55;98537.96;;;14.29;59.61
60246;BME280;46107;53.356;-1.524;2023-07-13T01:23:24;98538.24;;;14.56;57.32
60246;BME280;46107;53.356;-1.524;2023-07-13T01:25:52;98536.48;;;15.11;56.26
60246;BME280;46107;53.356;-1.524;2023-07-13T01:28:19;98544.21;;;13.99;58.93
60246;BME280;46107;53.356;-1.524;2023-07-13T01:30:47;98547.64;;;14.43;59.04
60246;BME280;46107;53.356;-1.524;2023-07-13T01:33:16;98547.45;;;13.87;58.56
60246;BME280;46107;53.356;-1.524;2023-07-13T01:35:50;98543.59;;;14.25;58.39
60246;BME280;46107;53.356;-1.524;2023-07-13T01:38:20;98544.49;;;14.49;57.83
60246;BME280;46107;53.356;-1.524;2023-07-13T01:40:48;98541.05;;;15.15;55.73
60246;BME280;46107;53.356;-1.524;2023-07-13T01:43:16;98541.33;;;15.29;55.67
60246;BME280;46107;53.356;-1.524;2023-07-13T01:45:44;98534.37;;;15.01;56.90
60246;BME280;46107;53.356;-1.524;2023-07-13T01:48:12;98528.99;;;15.02;56.58
60246;BME280;46107;53.356;-1.524;2023-07-13T01:50:40;98533.27;;;15.67;55.49
60246;BME280;46107;53.356;-1.524;2023-07-13T01:53:09;98535.22;;;14.80;57.42
60246;BME280;46107;53.356;-1.524;2023-07-13T01:55:37;98535.99;;;14.89;58.39
60246;BME280;46107;53.356;-1.524;2023-07-13T01:58:05;98523.30;;;14.86;58.09
60246;BME280;46107;53.356;-1.524;2023-07-13T02:00:33;98523.28;;;15.10;57.58
60246;BME280;46107;53.356;-1.524;2023-07-13T02:03:01;98528.70;;;14.80;57.24
60246;BME280;46107;53.356;-1.524;2023-07-13T02:05:28;98529.38;;;14.74;58.48
60246;BME280;46107;53.356;-1.524;2023-07-13T02:07:56;98527.28;;;14.94;57.54
60246;BME280;46107;53.356;-1.524;2023-07-13T02:10:23;98539.37;;;13.71;61.50
60246;BME280;46107;53.356;-1.524;2023-07-13T02:12:51;98530.49;;;13.99;60.03
60246;BME280;46107;53.356;-1.524;2023-07-13T02:15:18;98522.78;;;14.02;60.56
60246;BME280;46107;53.356;-1.524;2023-07-13T02:17:46;98520.78;;;12.80;63.48
60246;BME280;46107;53.356;-1.524;2023-07-13T02:20:14;98522.96;;;12.75;65.78
60246;BME280;46107;53.356;-1.524;2023-07-13T02:22:41;98520.41;;;12.97;65.02
60246;BME280;46107;53.356;-1.524;2023-07-13T02:25:08;98521.69;;;13.37;63.95
60246;BME280;46107;53.356;-1.524;2023-07-13T02:27:36;98519.01;;;13.31;63.80
60246;BME280;46107;53.356;-1.524;2023-07-13T02:30:04;98523.83;;;12.74;66.19
60246;BME280;46107;53.356;-1.524;2023-07-13T02:32:32;98527.61;;;12.84;67.02
60246;BME280;46107;53.356;-1.524;2023-07-13T02:35:00;98530.67;;;13.14;64.44
60246;BME280;46107;53.356;-1.524;2023-07-13T02:37:28;98537.25;;;12.53;68.04
60246;BME280;46107;53.356;-1.524;2023-07-13T02:39:56;98535.70;;;12.41;68.47
60246;BME280;46107;53.356;-1.524;2023-07-13T02:42:23;98536.66;;;11.79;70.87
60246;BME280;46107;53.356;-1.524;2023-07-13T02:44:51;98537.75;;;12.50;68.25
60246;BME280;46107;53.356;-1.524;2023-07-13T02:47:20;98531.38;;;11.55;70.56
60246;BME280;46107;53.356;-1.524;2023-07-13T02:49:47;98526.15;;;12.53;68.18
60246;BME280;46107;53.356;-1.524;2023-07-13T02:52:17;98526.54;;;11.92;69.92
60246;BME280;46107;53.356;-1.524;2023-07-13T02:54:44;98524.60;;;11.77;69.55
60246;BME280;46107;53.356;-1.524;2023-07-13T02:57:14;98530.16;;;12.57;68.16
60246;BME280;46107;53.356;-1.524;2023-07-13T02:59:41;98525.90;;;12.74;67.40
60246;BME280;46107;53.356;-1.524;2023-07-13T03:02:09;98530.49;;;12.65;67.33
60246;BME280;46107;53.356;-1.524;2023-07-13T03:04:36;98533.11;;;11.82;69.60
60246;BME280;46107;53.356;-1.524;2023-07-13T03:07:05;98538.76;;;12.16;69.17
60246;BME280;46107;53.356;-1.524;2023-07-13T03:09:34;98540.06;;;12.38;69.09
60246;BME280;46107;53.356;-1.524;2023-07-13T03:12:02;98537.69;;;12.64;65.97
60246;BME280;46107;53.356;-1.524;2023-07-13T03:14:29;98537.19;;;13.40;64.42
60246;BME280;46107;53.356;-1.524;2023-07-13T03:16:57;98535.94;;;11.96;67.50
60246;BME280;46107;53.356;-1.524;2023-07-13T03:19:25;98529.34;;;12.70;68.06
60246;BME280;46107;53.356;-1.524;2023-07-13T03:21:53;98531.95;;;11.58;69.40
60246;BME280;46107;53.356;-1.524;2023-07-13T03:24:20;98530.20;;;12.52;66.98
60246;BME280;46107;53.356;-1.524;2023-07-13T03:26:48;98524.17;;;12.93;65.52
60246;BME280;46107;53.356;-1.524;2023-07-13T03:29:15;98522.98;;;13.07;64.47
60246;BME280;46107;53.356;-1.524;2023-07-13T03:31:43;98527.17;;;13.88;62.22
60246;BME280;46107;53.356;-1.524;2023-07-13T03:34:10;98531.84;;;13.30;62.58
60246;BME280;46107;53.356;-1.524;2023-07-13T03:36:38;98529.45;;;14.07;61.13
60246;BME280;46107;53.356;-1.524;2023-07-13T03:39:05;98531.61;;;13.19;63.57
60246;BME280;46107;53.356;-1.524;2023-07-13T03:41:33;98535.04;;;13.74;61.98
60246;BME280;46107;53.356;-1.524;2023-07-13T03:44:01;98536.73;;;13.67;60.81
60246;BME280;46107;53.356;-1.524;2023-07-13T03:46:28;98537.91;;;14.24;59.96
60246;BME280;46107;53.356;-1.524;2023-07-13T03:48:56;98538.55;;;13.04;63.19
60246;BME280;46107;53.356;-1.524;2023-07-13T03:51:24;98541.29;;;13.74;61.75
60246;BME280;46107;53.356;-1.524;2023-07-13T03:53:51;98546.39;;;14.33;59.37
60246;BME280;46107;53.356;-1.524;2023-07-13T03:56:19;98546.72;;;14.82;57.52
60246;BME280;46107;53.356;-1.524;2023-07-13T03:58:48;98545.06;;;14.39;57.49
60246;BME280;46107;53.356;-1.524;2023-07-13T04:01:17;98546.53;;;14.53;59.47
60246;BME280;46107;53.356;-1.524;2023-07-13T04:03:45;98545.27;;;14.58;58.16
60246;BME280;46107;53.356;-1.524;2023-07-13T04:06:15;98551.37;;;14.10;56.16
60246;BME280;46107;53.356;-1.524;2023-07-13T04:08:43;98551.57;;;14.26;57.99
60246;BME280;46107;53.356;-1.524;2023-07-13T04:11:11;98555.29;;;13.90;58.64
60246;BME280;46107;53.356;-1.524;2023-07-13T04:13:38;98560.52;;;14.48;57.42
60246;BME280;46107;53.356;-1.524;2023-07-13T04:16:06;98562.54;;;14.88;55.83
60246;BME280;46107;53.356;-1.524;2023-07-13T04:18:34;98565.17;;;14.63;56.29
60246;BME280;46107;53.356;-1.524;2023-07-13T04:21:01;98571.45;;;14.28;58.53
60246;BME280;46107;53.356;-1.524;2023-07-13T04:23:28;98571.13;;;14.55;58.29
60246;BME280;46107;53.356;-1.524;2023-07-13T04:25:56;98576.78;;;14.22;59.10
60246;BME280;46107;53.356;-1.524;2023-07-13T04:28:25;98574.23;;;14.15;59.67
60246;BME280;46107;53.356;-1.524;2023-07-13T04:30:53;98569.58;;;14.14;59.79
60246;BME280;46107;53.356;-1.524;2023-07-13T04:33:20;98569.22;;;14.44;59.76
60246;BME280;46107;53.356;-1.524;2023-07-13T04:35:48;98576.66;;;14.99;58.38
60246;BME280;46107;53.356;-1.524;2023-07-13T04:38:16;98579.19;;;14.67;58.82
60246;BME280;46107;53.356;-1.524;2023-07-13T04:40:44;98578.83;;;15.04;57.47
60246;BME280;46107;53.356;-1.524;2023-07-13T04:43:12;98577.55;;;15.23;56.34
60246;BME280;46107;53.356;-1.524;2023-07-13T04:45:40;98574.85;;;15.98;54.44
60246;BME280;46107;53.356;-1.524;2023-07-13T04:48:08;98573.94;;;15.36;56.14
60246;BME280;46107;53.356;-1.524;2023-07-13T04:50:37;98577.15;;;16.07;54.71
60246;BME280;46107;53.356;-1.524;2023-07-13T04:53:05;98583.78;;;15.16;55.96
60246;BME280;46107;53.356;-1.524;2023-07-13T04:55:33;98587.71;;;15.77;56.50
60246;BME280;46107;53.356;-1.524;2023-07-13T04:58:00;98591.78;;;15.50;55.43
60246;BME280;46107;53.356;-1.524;2023-07-13T05:00:29;98593.97;;;15.09;56.52
60246;BME280;46107;53.356;-1.524;2023-07-13T05:02:58;98595.10;;;15.34;56.38
60246;BME280;46107;53.356;-1.524;2023-07-13T05:05:26;98595.57;;;15.89;55.22
60246;BME280;46107;53.356;-1.524;2023-07-13T05:07:54;98602.49;;;15.76;55.58
60246;BME280;46107;53.356;-1.524;2023-07-13T05:10:22;98603.63;;;15.85;55.03
60246;BME280;46107;53.356;-1.524;2023-07-13T05:12:51;98606.63;;;15.29;57.21
60246;BME280;46107;53.356;-1.524;2023-07-13T05:15:21;98614.63;;;14.11;58.94
60246;BME280;46107;53.356;-1.524;2023-07-13T05:17:50;98609.29;;;15.81;55.12
60246;BME280;46107;53.356;-1.524;2023-07-13T05:20:18;98608.94;;;15.73;56.01
60246;BME280;46107;53.356;-1.524;2023-07-13T05:22:46;98610.76;;;15.30;54.56
60246;BME280;46107;53.356;-1.524;2023-07-13T05:25:14;98613.63;;;15.47;55.64
60246;BME280;46107;53.356;-1.524;2023-07-13T05:27:41;98612.49;;;15.94;54.06
60246;BME280;46107;53.356;-1.524;2023-07-13T05:30:08;98621.71;;;14.95;56.35
60246;BME280;46107;53.356;-1.524;2023-07-13T05:32:36;98629.10;;;14.65;57.70
60246;BME280;46107;53.356;-1.524;2023-07-13T05:35:03;98626.33;;;15.80;54.08
60246;BME280;46107;53.356;-1.524;2023-07-13T05:37:31;98625.29;;;16.29;53.68
60246;BME280;46107;53.356;-1.524;2023-07-13T05:39:59;98626.68;;;15.86;53.08
60246;BME280;46107;53.356;-1.524;2023-07-13T05:42:27;98630.21;;;14.93;56.22
60246;BME280;46107;53.356;-1.524;2023-07-13T05:44:54;98635.89;;;16.72;52.24
60246;BME280;46107;53.356;-1.524;2023-07-13T05:47:22;98637.32;;;15.39;54.00
60246;BME280;46107;53.356;-1.524;2023-07-13T05:49:49;98638.43;;;15.36;54.78
60246;BME280;46107;53.356;-1.524;2023-07-13T05:52:17;98650.91;;;14.93;57.89
60246;BME280;46107;53.356;-1.524;2023-07-13T05:54:44;98644.29;;;15.52;56.47
60246;BME280;46107;53.356;-1.524;2023-07-13T05:57:12;98647.83;;;15.76;54.37
60246;BME280;46107;53.356;-1.524;2023-07-13T05:59:39;98653.31;;;15.32;54.60
60246;BME280;46107;53.356;-1.524;2023-07-13T06:02:09;98657.56;;;16.28;53.47
60246;BME280;46107;53.356;-1.524;2023-07-13T06:04:36;98659.61;;;15.44;54.19
60246;BME280;46107;53.356;-1.524;2023-07-13T06:07:04;98663.21;;;13.82;56.32
60246;BME280;46107;53.356;-1.524;2023-07-13T06:09:32;98671.54;;;15.37;54.15
60246;BME280;46107;53.356;-1.524;2023-07-13T06:12:00;98669.57;;;15.89;53.90
60246;BME280;46107;53.356;-1.524;2023-07-13T06:14:28;98670.48;;;16.19;52.51
60246;BME280;46107;53.356;-1.524;2023-07-13T06:16:55;98675.60;;;16.32;52.85
60246;BME280;46107;53.356;-1.524;2023-07-13T06:19:23;98679.43;;;17.01;50.70
60246;BME280;46107;53.356;-1.524;2023-07-13T06:21:50;98683.92;;;16.80;52.04
60246;BME280;46107;53.356;-1.524;2023-07-13T06:24:18;98687.61;;;16.67;53.24
60246;BME280;46107;53.356;-1.524;2023-07-13T06:26:45;98689.05;;;16.65;51.74
60246;BME280;46107;53.356;-1.524;2023-07-13T06:29:13;98693.08;;;16.95;51.46
60246;BME280;46107;53.356;-1.524;2023-07-13T06:31:41;98690.91;;;15.49;54.49
60246;BME280;46107;53.356;-1.524;2023-07-13T06:34:09;98702.72;;;15.27;55.14
60246;BME280;46107;53.356;-1.524;2023-07-13T06:36:36;98697.16;;;16.36;53.05
60246;BME280;46107;53.356;-1.524;2023-07-13T06:39:03;98698.14;;;16.02;53.53
60246;BME280;46107;53.356;-1.524;2023-07-13T06:41:31;98703.46;;;16.88;51.46
60246;BME280;46107;53.356;-1.524;2023-07-13T06:43:58;98712.45;;;15.22;56.23
60246;BME280;46107;53.356;-1.524;2023-07-13T06:46:28;98702.15;;;16.22;54.17
60246;BME280;46107;53.356;-1.524;2023-07-13T06:48:56;98702.92;;;16.75;51.58
60246;BME280;46107;53.356;-1.524;2023-07-13T06:51:24;98709.69;;;15.67;55.14
60246;BME280;46107;53.356;-1.524;2023-07-13T06:53:52;98707.94;;;15.28;54.39
60246;BME280;46107;53.356;-1.524;2023-07-13T06:56:20;98703.87;;;16.16;53.54
60246;BME280;46107;53.356;-1.524;2023-07-13T06:58:47;98708.30;;;15.65;55.29
60246;BME280;46107;53.356;-1.524;2023-07-13T07:01:15;98700.78;;;16.33;51.91
60246;BME280;46107;53.356;-1.524;2023-07-13T07:03:43;98705.92;;;16.71;52.28
60246;BME280;46107;53.356;-1.524;2023-07-13T07:06:14;98711.79;;;16.14;51.80
60246;BME280;46107;53.356;-1.524;2023-07-13T07:08:42;98712.52;;;16.20;52.48
60246;BME280;46107;53.356;-1.524;2023-07-13T07:11:10;98712.53;;;16.58;52.70
60246;BME280;46107;53.356;-1.524;2023-07-13T07:13:39;98710.92;;;17.09;52.17
60246;BME280;46107;53.356;-1.524;2023-07-13T07:16:07;98713.93;;;16.59;52.10
60246;BME280;46107;53.356;-1.524;2023-07-13T07:18:34;98713.59;;;16.86;52.15
60246;BME280;46107;53.356;-1.524;2023-07-13T07:21:02;98714.58;;;16.60;51.73
60246;BME280;46107;53.356;-1.524;2023-07-13T07:23:29;98717.97;;;17.25;50.65
60246;BME280;46107;53.356;-1.524;2023-07-13T07:25:57;98720.01;;;17.34;52.64
60246;BME280;46107;53.356;-1.524;2023-07-13T07:28:24;98723.82;;;16.65;51.95
60246;BME280;46107;53.356;-1.524;2023-07-13T07:30:54;98733.10;;;16.70;49.16
60246;BME280;46107;53.356;-1.524;2023-07-13T07:33:22;98736.15;;;16.78;49.80
60246;BME280;46107;53.356;-1.524;2023-07-13T07:35:50;98738.28;;;16.89;49.79
60246;BME280;46107;53.356;-1.524;2023-07-13T07:38:18;98738.88;;;16.70;50.80
60246;BME280;46107;53.356;-1.524;2023-07-13T07:40:46;98747.39;;;17.18;50.12
60246;BME280;46107;53.356;-1.524;2023-07-13T07:43:14;98753.27;;;16.01;50.55
60246;BME280;46107;53.356;-1.524;2023-07-13T07:45:43;98746.46;;;16.40;50.87
60246;BME280;46107;53.356;-1.524;2023-07-13T07:48:11;98744.08;;;16.71;50.61
60246;BME280;46107;53.356;-1.524;2023-07-13T07:50:39;98745.61;;;16.08;51.00
60246;BME280;46107;53.356;-1.524;2023-07-13T07:53:07;98744.07;;;16.87;51.01
60246;BME280;46107;53.356;-1.524;2023-07-13T07:55:35;98747.98;;;17.33;49.50
60246;BME280;46107;53.356;-1.524;2023-07-13T07:58:03;98749.87;;;17.75;48.95
60246;BME280;46107;53.356;-1.524;2023-07-13T08:00:30;98749.49;;;16.72;49.04
60246;BME280;46107;53.356;-1.524;2023-07-13T08:02:58;98746.88;;;17.84;49.98
60246;BME280;46107;53.356;-1.524;2023-07-13T08:05:26;98750.60;;;18.37;46.86
60246;BME280;46107;53.356;-1.524;2023-07-13T08:07:54;98756.41;;;17.66;45.92
60246;BME280;46107;53.356;-1.524;2023-07-13T08:10:21;98751.65;;;17.12;48.32
60246;BME280;46107;53.356;-1.524;2023-07-13T08:12:48;98756.74;;;17.00;51.11
60246;BME280;46107;53.356;-1.524;2023-07-13T08:15:17;98756.09;;;16.62;48.86
60246;BME280;46107;53.356;-1.524;2023-07-13T08:17:45;98756.55;;;17.92;47.25
60246;BME280;46107;53.356;-1.524;2023-07-13T08:20:12;98753.70;;;17.63;46.60
60246;BME280;46107;53.356;-1.524;2023-07-13T08:22:40;98752.98;;;18.35;47.97
60246;BME280;46107;53.356;-1.524;2023-07-13T08:25:08;98752.37;;;19.21;44.44
60246;BME280;46107;53.356;-1.524;2023-07-13T08:27:35;98754.92;;;18.74;46.14
60246;BME280;46107;53.356;-1.524;2023-07-13T08:30:03;98754.57;;;18.35;45.08
60246;BME280;46107;53.356;-1.524;2023-07-13T08:32:31;98753.25;;;18.70;43.34
60246;BME280;46107;53.356;-1.524;2023-07-13T08:34:59;98748.37;;;18.55;43.27
60246;BME280;46107;53.356;-1.524;2023-07-13T08:37:26;98753.13;;;17.08;46.36
60246;BME280;46107;53.356;-1.524;2023-07-13T08:39:54;98750.27;;;17.45;45.44
60246;BME280;46107;53.356;-1.524;2023-07-13T08:42:32;98751.22;;;18.36;44.92
60246;BME280;46107;53.356;-1.524;2023-07-13T08:45:12;98753.90;;;17.90;45.92
60246;BME280;46107;53.356;-1.524;2023-07-13T08:47:45;98752.00;;;18.35;42.56
60246;BME280;46107;53.356;-1.524;2023-07-13T08:50:17;98756.55;;;17.75;44.79
60246;BME280;46107;53.356;-1.524;2023-07-13T08:52:47;98757.76;;;17.74;44.28
60246;BME280;46107;53.356;-1.524;2023-07-13T08:55:17;98759.32;;;17.43;42.86
60246;BME280;46107;53.356;-1.524;2023-07-13T08:57:55;98754.83;;;17.47;46.16
60246;BME280;46107;53.356;-1.524;2023-07-13T09:00:31;98751.23;;;17.36;44.46
60246;BME280;46107;53.356;-1.524;2023-07-13T09:03:02;98749.55;;;18.17;44.71
60246;BME280;46107;53.356;-1.524;2023-07-13T09:05:36;98753.73;;;18.02;44.59
60246;BME280;46107;53.356;-1.524;2023-07-13T09:08:19;98754.87;;;18.24;43.57
60246;BME280;46107;53.356;-1.524;2023-07-13T09:10:52;98754.36;;;19.03;42.55
60246;BME280;46107;53.356;-1.524;2023-07-13T09:13:27;98755.09;;;19.35;40.71
60246;BME280;46107;53.356;-1.524;2023-07-13T09:15:56;98754.28;;;18.69;41.15
60246;BME280;46107;53.356;-1.524;2023-07-13T09:18:30;98747.02;;;17.41;43.46
60246;BME280;46107;53.356;-1.524;2023-07-13T09:21:02;98739.05;;;18.38;40.83
60246;BME280;46107;53.356;-1.524;2023-07-13T09:23:31;98742.19;;;18.28;41.48
60246;BME280;46107;53.356;-1.524;2023-07-13T09:26:03;98742.66;;;19.50;40.29
60246;BME280;46107;53.356;-1.524;2023-07-13T09:28:38;98745.72;;;17.89;42.06
60246;BME280;46107;53.356;-1.524;2023-07-13T09:31:09;98737.93;;;18.75;39.04
60246;BME280;46107;53.356;-1.524;2023-07-13T09:33:38;98749.49;;;18.78;41.23
60246;BME280;46107;53.356;-1.524;2023-07-13T09:36:19;98748.47;;;18.45;41.60
60246;BME280;46107;53.356;-1.524;2023-07-13T09:38:48;98742.17;;;18.44;40.05
60246;BME280;46107;53.356;-1.524;2023-07-13T09:41:23;98750.28;;;19.76;41.08
60246;BME280;46107;53.356;-1.524;2023-07-13T09:44:08;98742.97;;;18.67;42.84
60246;BME280;46107;53.356;-1.524;2023-07-13T09:46:36;98741.99;;;19.51;42.87
60246;BME280;46107;53.356;-1.524;2023-07-13T09:49:03;98740.41;;;19.56;38.85
60246;BME280;46107;53.356;-1.524;2023-07-13T09:51:31;98741.18;;;19.49;38.80
60246;BME280;46107;53.356;-1.524;2023-07-13T09:53:58;98738.02;;;18.26;41.44
60246;BME280;46107;53.356;-1.524;2023-07-13T09:56:28;98741.43;;;19.64;38.35
60246;BME280;46107;53.356;-1.524;2023-07-13T09:58:57;98747.81;;;20.03;40.62
60246;BME280;46107;53.356;-1.524;2023-07-13T10:01:35;98740.84;;;18.95;40.48
60246;BME280;46107;53.356;-1.524;2023-07-13T10:04:11;98742.54;;;18.42;41.17
60246;BME280;46107;53.356;-1.524;2023-07-13T10:06:40;98753.46;;;19.27;38.00
60246;BME280;46107;53.356;-1.524;2023-07-13T10:09:08;98761.85;;;18.14;40.70
60246;BME280;46107;53.356;-1.524;2023-07-13T10:11:37;98757.06;;;18.76;39.15
60246;BME280;46107;53.356;-1.524;2023-07-13T10:14:12;98761.59;;;16.98;41.34
60246;BME280;46107;53.356;-1.524;2023-07-13T10:16:43;98757.40;;;18.70;45.05
60246;BME280;46107;53.356;-1.524;2023-07-13T10:19:15;98760.18;;;17.99;40.45
60246;BME280;46107;53.356;-1.524;2023-07-13T10:21:50;98767.14;;;18.83;41.43
60246;BME280;46107;53.356;-1.524;2023-07-13T10:24:21;98767.65;;;18.91;41.48
60246;BME280;46107;53.356;-1.524;2023-07-13T10:26:56;98763.38;;;19.09;40.56
60246;BME280;46107;53.356;-1.524;2023-07-13T10:29:27;98767.17;;;19.01;38.00
60246;BME280;46107;53.356;-1.524;2023-07-13T10:31:56;98769.97;;;18.93;37.88
60246;BME280;46107;53.356;-1.524;2023-07-13T10:34:24;98771.63;;;18.45;39.31
60246;BME280;46107;53.356;-1.524;2023-07-13T10:36:52;98778.63;;;18.90;40.13
60246;BME280;46107;53.356;-1.524;2023-07-13T10:39:23;98780.90;;;18.92;40.70
60246;BME280;46107;53.356;-1.524;2023-07-13T10:41:55;98782.64;;;19.19;38.41
60246;BME280;46107;53.356;-1.524;2023-07-13T10:44:29;98785.94;;;19.71;40.79
60246;BME280;46107;53.356;-1.524;2023-07-13T10:47:01;98790.52;;;19.03;40.56
60246;BME280;46107;53.356;-1.524;2023-07-13T10:49:32;98787.01;;;19.25;37.90
60246;BME280;46107;53.356;-1.524;2023-07-13T10:52:00;98788.03;;;19.06;37.59
60246;BME280;46107;53.356;-1.524;2023-07-13T10:54:31;98793.75;;;19.40;37.92
60246;BME280;46107;53.356;-1.524;2023-07-13T10:57:15;98791.29;;;19.95;40.06
60246;BME280;46107;53.356;-1.524;2023-07-13T10:59:47;98792.32;;;19.59;40.76
60246;BME280;46107;53.356;-1.524;2023-07-13T11:02:23;98791.57;;;19.40;40.94
60246;BME280;46107;53.356;-1.524;2023-07-13T11:04:54;98790.12;;;20.81;37.47
60246;BME280;46107;53.356;-1.524;2023-07-13T11:07:25;98789.20;;;19.77;37.93
60246;BME280;46107;53.356;-1.524;2023-07-13T11:09:55;98794.98;;;20.38;38.56
60246;BME280;46107;53.356;-1.524;2023-07-13T11:12:51;98797.36;;;19.61;37.64
60246;BME280;46107;53.356;-1.524;2023-07-13T11:15:31;98795.13;;;20.30;36.77
60246;BME280;46107;53.356;-1.524;2023-07-13T11:18:03;98792.81;;;20.20;37.52
60246;BME280;46107;53.356;-1.524;2023-07-13T11:20:36;98792.69;;;20.61;37.12
60246;BME280;46107;53.356;-1.524;2023-07-13T11:23:17;98789.30;;;20.12;34.71
60246;BME280;46107;53.356;-1.524;2023-07-13T11:25:45;98789.61;;;19.25;39.42
60246;BME280;46107;53.356;-1.524;2023-07-13T11:28:17;98786.31;;;19.33;35.85
60246;BME280;46107;53.356;-1.524;2023-07-13T11:30:49;98789.82;;;19.19;38.03
60246;BME280;46107;53.356;-1.524;2023-07-13T11:33:20;98788.59;;;19.84;37.71
60246;BME280;46107;53.356;-1.524;2023-07-13T11:35:58;98785.78;;;18.27;36.19
60246;BME280;46107;53.356;-1.524;2023-07-13T11:38:32;98787.00;;;17.04;38.12
60246;BME280;46107;53.356;-1.524;2023-07-13T11:41:04;98784.86;;;18.30;38.65
60246;BME280;46107;53.356;-1.524;2023-07-13T11:43:32;98783.42;;;18.23;39.34
60246;BME280;46107;53.356;-1.524;2023-07-13T11:45:59;98783.19;;;19.24;37.36
60246;BME280;46107;53.356;-1.524;2023-07-13T11:48:39;98786.99;;;19.72;38.48
60246;BME280;46107;53.356;-1.524;2023-07-13T11:51:06;98780.06;;;19.61;37.39
60246;BME280;46107;53.356;-1.524;2023-07-13T11:53:46;98784.02;;;20.07;37.00
60246;BME280;46107;53.356;-1.524;2023-07-13T11:56:15;98782.99;;;19.57;36.93
60246;BME280;46107;53.356;-1.524;2023-07-13T11:58:43;98772.73;;;18.91;38.99
60246;BME280;46107;53.356;-1.524;2023-07-13T12:01:21;98773.97;;;19.81;39.97
60246;BME280;46107;53.356;-1.524;2023-07-13T12:03:50;98776.09;;;19.88;37.57
60246;BME280;46107;53.356;-1.524;2023-07-13T12:06:26;98774.26;;;19.58;38.54
60246;BME280;46107;53.356;-1.524;2023-07-13T12:08:56;98770.94;;;19.67;38.76
60246;BME280;46107;53.356;-1.524;2023-07-13T12:11:24;98772.39;;;19.71;38.92
60246;BME280;46107;53.356;-1.524;2023-07-13T12:13:50;98776.09;;;19.88;38.28
60246;BME280;46107;53.356;-1.524;2023-07-13T12:16:25;98777.42;;;19.79;37.71
60246;BME280;46107;53.356;-1.524;2023-07-13T12:18:54;98775.07;;;20.39;39.56
60246;BME280;46107;53.356;-1.524;2023-07-13T12:21:29;98766.25;;;19.50;37.56
60246;BME280;46107;53.356;-1.524;2023-07-13T12:23:57;98759.82;;;20.59;37.00
60246;BME280;46107;53.356;-1.524;2023-07-13T12:26:25;98761.04;;;21.17;38.83
60246;BME280;46107;53.356;-1.524;2023-07-13T12:28:55;98765.19;;;19.82;41.71
60246;BME280;46107;53.356;-1.524;2023-07-13T12:31:29;98766.54;;;20.27;35.64
60246;BME280;46107;53.356;-1.524;2023-07-13T12:33:59;98762.84;;;19.86;36.68
60246;BME280;46107;53.356;-1.524;2023-07-13T12:36:31;98761.77;;;19.46;39.86
60246;BME280;46107;53.356;-1.524;2023-07-13T12:39:03;98767.53;;;20.02;38.73
60246;BME280;46107;53.356;-1.524;2023-07-13T12:41:33;98764.28;;;18.82;39.36
60246;BME280;46107;53.356;-1.524;2023-07-13T12:44:00;98764.19;;;19.85;40.44
60246;BME280;46107;53.356;-1.524;2023-07-13T12:46:28;98760.84;;;19.06;38.45
60246;BME280;46107;53.356;-1.524;2023-07-13T12:48:57;98754.95;;;19.59;39.49
60246;BME280;46107;53.356;-1.524;2023-07-13T12:51:26;98751.95;;;20.04;39.26
60246;BME280;46107;53.356;-1.524;2023-07-13T12:53:57;98751.25;;;19.87;38.15
60246;BME280;46107;53.356;-1.524;2023-07-13T12:56:26;98747.54;;;20.35;38.66
60246;BME280;46107;53.356;-1.524;2023-07-13T12:59:03;98746.69;;;20.51;36.10
60246;BME280;46107;53.356;-1.524;2023-07-13T13:01:34;98744.47;;;19.35;39.71